Time;durP1;ratioP1;P1;durP2;ratioP2;P2;SDS_P1;SDS_P2;PMS_P1;PMS_P2;Temp;Humidity;BMP_temperature;BMP_pressure;BME280_temperature;BME280_humidity;BME280_pressure;Samples;Min_cycle;Max_cycle;Signal;HPM_P1;HPM_P2
2021/04/30 00:01:11;;;;;;;11.30;9.70;;;9.00;64.80;;;;;;5005774;28;20453;-48
2021/04/30 00:03:37;;;;;;;11.17;8.77;;;9.00;65.00;;;;;;5003589;28;20475;-48
2021/04/30 00:06:04;;;;;;;14.50;9.80;;;9.00;64.90;;;;;;5005062;28;20468;-48
2021/04/30 00:08:30;;;;;;;11.87;10.20;;;8.90;64.60;;;;;;5003646;28;20463;-48
2021/04/30 00:10:57;;;;;;;10.43;9.10;;;8.80;64.80;;;;;;5004583;28;20468;-48
2021/04/30 00:13:25;;;;;;;12.57;9.03;;;8.80;64.90;;;;;;5003378;28;20464;-48
2021/04/30 00:15:51;;;;;;;10.80;9.00;;;8.70;65.20;;;;;;5007802;28;20496;-48
2021/04/30 00:18:17;;;;;;;12.10;10.10;;;8.70;65.40;;;;;;5006509;28;20487;-48
2021/04/30 00:20:53;;;;;;;12.73;9.50;;;8.60;65.50;;;;;;5004174;28;21163;-48
2021/04/30 00:23:25;;;;;;;15.10;10.40;;;8.60;65.50;;;;;;5006965;28;20466;-48
2021/04/30 00:25:52;;;;;;;14.37;10.43;;;8.60;65.70;;;;;;5004101;28;20464;-48
2021/04/30 00:28:19;;;;;;;15.10;10.97;;;8.60;65.70;;;;;;5005151;28;20467;-48
2021/04/30 00:30:45;;;;;;;13.40;10.53;;;8.50;66.00;;;;;;5006245;28;20462;-48
2021/04/30 00:33:16;;;;;;;11.80;10.60;;;8.50;66.30;;;;;;5006705;28;20945;-48
2021/04/30 00:35:43;;;;;;;11.33;10.13;;;8.50;66.90;;;;;;5004432;28;20471;-48
2021/04/30 00:38:10;;;;;;;14.20;10.40;;;8.50;67.00;;;;;;5004286;28;20492;-48
2021/04/30 00:40:37;;;;;;;13.60;10.30;;;8.50;67.10;;;;;;5006248;28;20969;-48
2021/04/30 00:43:03;;;;;;;12.07;10.57;;;8.40;67.30;;;;;;5007272;28;20460;-48
2021/04/30 00:45:30;;;;;;;14.00;10.50;;;8.40;67.20;;;;;;5006141;28;20811;-48
2021/04/30 00:47:56;;;;;;;13.73;10.20;;;8.40;67.20;;;;;;5005701;28;20472;-48
2021/04/30 00:50:24;;;;;;;12.30;10.30;;;8.40;67.10;;;;;;5007778;28;20461;-48
2021/04/30 00:52:51;;;;;;;12.90;10.70;;;8.30;67.20;;;;;;5007353;28;20458;-48
2021/04/30 00:55:19;;;;;;;12.60;10.57;;;8.30;67.20;;;;;;5006131;28;20464;-48
2021/04/30 00:57:54;;;;;;;16.27;11.53;;;8.30;67.20;;;;;;5006622;28;20483;-48
2021/04/30 01:00:22;;;;;;;13.60;10.93;;;8.30;67.10;;;;;;5002819;28;20452;-47
2021/04/30 01:02:49;;;;;;;15.20;10.53;;;8.30;67.10;;;;;;5020472;28;20459;-48
2021/04/30 01:05:16;;;;;;;13.83;10.50;;;8.30;67.10;;;;;;5007094;28;20502;-48
2021/04/30 01:07:43;;;;;;;12.23;10.87;;;8.30;67.30;;;;;;5009436;28;20460;-48
2021/04/30 01:10:10;;;;;;;12.97;10.27;;;8.20;67.20;;;;;;5007207;28;20468;-48
2021/04/30 01:12:36;;;;;;;13.80;11.00;;;8.20;67.30;;;;;;5005983;28;20546;-48
2021/04/30 01:15:05;;;;;;;11.60;10.27;;;8.20;67.60;;;;;;5006933;28;20494;-47
2021/04/30 01:17:34;;;;;;;15.33;11.83;;;8.20;67.90;;;;;;5010333;28;20488;-48
2021/04/30 01:20:01;;;;;;;12.20;9.70;;;8.20;67.90;;;;;;5006031;28;20472;-48
2021/04/30 01:22:53;;;;;;;13.70;10.80;;;8.10;67.80;;;;;;5005461;28;20935;-48
2021/04/30 01:25:25;;;;;;;15.17;10.57;;;8.10;67.70;;;;;;5019185;28;20981;-48
2021/04/30 01:27:52;;;;;;;13.43;9.50;;;8.10;67.80;;;;;;5008034;28;20456;-48
2021/04/30 01:30:25;;;;;;;12.70;10.57;;;8.00;67.90;;;;;;5004827;28;20467;-48
2021/04/30 01:32:52;;;;;;;13.37;10.73;;;8.00;68.20;;;;;;5007478;28;20484;-48
2021/04/30 01:35:20;;;;;;;13.10;11.70;;;8.00;68.30;;;;;;5009012;28;20455;-48
2021/04/30 01:37:49;;;;;;;16.27;11.80;;;7.90;68.40;;;;;;5009835;28;20480;-48
2021/04/30 01:40:21;;;;;;;15.03;11.53;;;8.00;68.60;;;;;;5008272;28;20817;-48
2021/04/30 01:43:07;;;;;;;17.83;13.13;;;8.00;68.80;;;;;;5009579;28;21017;-48
2021/04/30 01:45:56;;;;;;;13.87;12.00;;;7.90;68.70;;;;;;5007783;28;20456;-48
2021/04/30 01:48:24;;;;;;;17.17;12.10;;;7.90;68.60;;;;;;5006207;28;20954;-48
2021/04/30 01:50:51;;;;;;;15.30;12.07;;;7.80;68.70;;;;;;5008741;28;20460;-48
2021/04/30 01:53:21;;;;;;;12.30;10.97;;;7.80;68.70;;;;;;5008668;28;20464;-48
2021/04/30 01:55:47;;;;;;;13.47;11.57;;;7.80;68.50;;;;;;5024322;28;20465;-48
2021/04/30 01:58:16;;;;;;;17.23;12.70;;;7.80;68.80;;;;;;5006499;28;20490;-48
2021/04/30 02:00:43;;;;;;;15.37;11.63;;;7.80;68.80;;;;;;5004802;28;20760;-48
2021/04/30 02:03:10;;;;;;;14.10;11.93;;;7.80;68.60;;;;;;5007356;28;20949;-48
2021/04/30 02:05:37;;;;;;;14.90;12.10;;;7.80;68.60;;;;;;5023419;28;20893;-48
2021/04/30 02:08:07;;;;;;;14.67;11.30;;;7.80;68.70;;;;;;5004832;28;20471;-48
2021/04/30 02:10:34;;;;;;;14.93;11.80;;;7.80;68.60;;;;;;5008604;28;20467;-48
2021/04/30 02:13:01;;;;;;;13.70;12.17;;;7.70;68.70;;;;;;5004077;28;21043;-48
2021/04/30 02:15:32;;;;;;;14.23;11.80;;;7.70;69.00;;;;;;5007808;28;20519;-48
2021/04/30 02:17:59;;;;;;;13.33;11.73;;;7.60;69.20;;;;;;5007315;28;20497;-48
2021/04/30 02:20:26;;;;;;;15.47;12.10;;;7.70;69.70;;;;;;5007355;28;20949;-48
2021/04/30 02:22:52;;;;;;;17.70;13.13;;;7.70;70.00;;;;;;5006978;28;20469;-47
2021/04/30 02:25:21;;;;;;;14.27;12.60;;;7.70;69.70;;;;;;5002593;28;20475;-48
2021/04/30 02:27:50;;;;;;;15.00;12.33;;;7.60;69.70;;;;;;5016788;28;20468;-48
2021/04/30 02:30:18;;;;;;;16.10;12.73;;;7.60;70.10;;;;;;5001482;28;20810;-47
2021/04/30 02:32:45;;;;;;;14.00;11.90;;;7.60;70.20;;;;;;5001994;28;20464;-48
2021/04/30 02:35:18;;;;;;;17.30;12.17;;;7.60;70.20;;;;;;5007663;28;20460;-48
2021/04/30 02:37:46;;;;;;;18.90;13.50;;;7.60;70.20;;;;;;5008458;28;20496;-48
2021/04/30 02:40:15;;;;;;;16.77;12.87;;;7.60;70.50;;;;;;4998498;28;20468;-48
2021/04/30 02:42:43;;;;;;;15.33;11.90;;;7.50;70.50;;;;;;5005322;28;21044;-48
2021/04/30 02:45:11;;;;;;;14.30;12.13;;;7.50;70.60;;;;;;5003886;28;20900;-48
2021/04/30 02:47:37;;;;;;;14.30;12.63;;;7.50;70.50;;;;;;5007177;28;20779;-48
2021/04/30 02:50:06;;;;;;;16.10;13.50;;;7.50;70.60;;;;;;5002860;28;20487;-48
2021/04/30 02:52:33;;;;;;;15.47;12.50;;;7.40;70.50;;;;;;5007991;28;20465;-48
2021/04/30 02:55:00;;;;;;;17.50;12.90;;;7.40;70.10;;;;;;5009032;28;20459;-48
2021/04/30 02:57:31;;;;;;;15.57;12.90;;;7.40;70.30;;;;;;5020687;28;20453;-48
2021/04/30 02:59:58;;;;;;;13.60;12.00;;;7.40;70.30;;;;;;5024311;28;20466;-47
2021/04/30 03:02:24;;;;;;;14.83;12.63;;;7.40;70.50;;;;;;5007659;28;20460;-48
2021/04/30 03:04:50;;;;;;;15.17;12.30;;;7.40;70.40;;;;;;5006744;28;20464;-48
2021/04/30 03:07:17;;;;;;;14.07;11.23;;;7.40;70.50;;;;;;5008451;28;20539;-48
2021/04/30 03:09:43;;;;;;;19.20;11.60;;;7.30;70.40;;;;;;5007641;28;20475;-47
2021/04/30 03:12:10;;;;;;;18.37;13.20;;;7.30;70.40;;;;;;5006858;28;20884;-47
2021/04/30 03:14:36;;;;;;;18.77;13.90;;;7.30;70.50;;;;;;5021588;28;20966;-47
2021/04/30 03:17:03;;;;;;;16.90;13.10;;;7.30;70.40;;;;;;5006997;28;20484;-48
2021/04/30 03:19:29;;;;;;;19.03;14.07;;;7.20;70.40;;;;;;5021960;28;20862;-48
2021/04/30 03:21:55;;;;;;;19.80;13.33;;;7.20;70.40;;;;;;5006592;28;20460;-48
2021/04/30 03:24:21;;;;;;;14.50;12.57;;;7.10;70.30;;;;;;5004424;28;20467;-48
2021/04/30 03:26:48;;;;;;;15.40;12.57;;;7.10;70.40;;;;;;5004994;28;20452;-48
2021/04/30 03:29:15;;;;;;;16.93;12.73;;;7.10;70.50;;;;;;5004831;28;20980;-48
2021/04/30 03:31:41;;;;;;;18.30;13.40;;;7.10;70.70;;;;;;5005231;28;20604;-48
2021/04/30 03:34:08;;;;;;;16.17;13.07;;;7.10;70.70;;;;;;5005883;28;20456;-48
2021/04/30 03:36:34;;;;;;;16.97;13.10;;;7.10;70.70;;;;;;5022144;28;20476;-47
2021/04/30 03:39:04;;;;;;;18.30;14.43;;;7.00;70.80;;;;;;5007735;28;20496;-47
2021/04/30 03:41:30;;;;;;;15.37;13.30;;;7.00;70.90;;;;;;5006871;28;20456;-47
2021/04/30 03:43:56;;;;;;;18.60;14.40;;;7.00;70.90;;;;;;5008137;28;20448;-47
2021/04/30 03:46:23;;;;;;;16.97;13.00;;;7.00;70.90;;;;;;5002327;28;20483;-48
2021/04/30 03:48:49;;;;;;;16.07;12.87;;;7.00;70.80;;;;;;5008470;28;20522;-47
2021/04/30 03:51:15;;;;;;;14.37;12.87;;;6.90;70.80;;;;;;5001580;28;20472;-47
2021/04/30 03:53:42;;;;;;;22.30;13.23;;;6.90;70.90;;;;;;5002098;28;20968;-48
2021/04/30 03:56:08;;;;;;;17.80;14.00;;;6.80;71.20;;;;;;4997081;28;20463;-47
2021/04/30 03:58:34;;;;;;;22.07;14.00;;;6.80;71.60;;;;;;5020342;28;20574;-47
2021/04/30 04:01:01;;;;;;;14.90;12.83;;;6.80;72.00;;;;;;5002985;28;20462;-47
2021/04/30 04:03:27;;;;;;;14.03;12.53;;;6.80;72.30;;;;;;5006313;28;20471;-47
2021/04/30 04:05:53;;;;;;;18.53;14.27;;;6.70;72.20;;;;;;5004849;28;20468;-47
2021/04/30 04:08:20;;;;;;;20.17;14.30;;;6.70;72.20;;;;;;5006973;28;20747;-47
2021/04/30 04:10:46;;;;;;;16.67;13.50;;;6.70;72.30;;;;;;5007118;28;20468;-47
2021/04/30 04:13:21;;;;;;;17.43;13.93;;;6.70;72.50;;;;;;5007421;28;20949;-47
2021/04/30 04:15:48;;;;;;;16.27;14.30;;;6.70;72.60;;;;;;5005346;28;20820;-47
2021/04/30 04:18:17;;;;;;;18.87;15.23;;;6.60;72.70;;;;;;5007427;28;20488;-47
2021/04/30 04:20:43;;;;;;;19.13;15.60;;;6.60;72.70;;;;;;5007003;28;20452;-47
2021/04/30 04:23:11;;;;;;;17.97;13.53;;;6.60;72.80;;;;;;5005014;28;20459;-46
2021/04/30 04:25:38;;;;;;;18.73;14.90;;;6.60;72.80;;;;;;5000955;28;20568;-48
2021/04/30 04:28:05;;;;;;;15.70;12.57;;;6.60;72.90;;;;;;5003383;28;20470;-47
2021/04/30 04:30:31;;;;;;;19.33;15.13;;;6.60;73.10;;;;;;4998735;28;20464;-48
2021/04/30 04:32:58;;;;;;;17.60;13.97;;;6.60;73.10;;;;;;5019361;28;20826;-47
2021/04/30 04:35:24;;;;;;;24.27;14.93;;;6.60;73.20;;;;;;5001805;28;20465;-47
2021/04/30 04:37:51;;;;;;;21.30;15.17;;;6.60;73.20;;;;;;5001863;28;20483;-47
2021/04/30 04:40:18;;;;;;;23.40;16.03;;;6.60;73.30;;;;;;4998088;28;20555;-47
2021/04/30 04:42:47;;;;;;;19.57;14.43;;;6.60;73.20;;;;;;5006039;28;20483;-48
2021/04/30 04:45:14;;;;;;;18.67;14.13;;;6.60;73.20;;;;;;5008691;28;20460;-47
2021/04/30 04:47:41;;;;;;;21.50;13.87;;;6.60;73.20;;;;;;5010273;28;20456;-47
2021/04/30 04:50:10;;;;;;;19.47;14.43;;;6.60;73.20;;;;;;5007469;28;20949;-47
2021/04/30 04:52:37;;;;;;;22.03;14.37;;;6.60;73.20;;;;;;5009855;28;20455;-48
2021/04/30 04:55:09;;;;;;;18.30;15.33;;;6.60;73.20;;;;;;5005203;28;20456;-47
2021/04/30 04:57:35;;;;;;;19.97;14.60;;;6.70;73.00;;;;;;5006263;28;20467;-47
2021/04/30 05:00:04;;;;;;;18.00;13.73;;;6.70;72.90;;;;;;5006572;28;20459;-47
2021/04/30 05:02:31;;;;;;;23.03;16.80;;;6.70;72.90;;;;;;5009974;28;20867;-47
2021/04/30 05:04:57;;;;;;;25.33;16.87;;;6.70;73.10;;;;;;5008226;28;20473;-47
2021/04/30 05:07:23;;;;;;;22.73;16.10;;;6.80;73.10;;;;;;5009117;28;20961;-47
2021/04/30 05:09:49;;;;;;;17.00;15.20;;;6.90;73.10;;;;;;5008391;28;20463;-48
2021/04/30 05:12:16;;;;;;;17.70;14.60;;;6.90;72.80;;;;;;5026283;28;20819;-48
2021/04/30 05:14:42;;;;;;;18.20;14.00;;;6.90;72.80;;;;;;5009763;28;20811;-48
2021/04/30 05:17:08;;;;;;;21.70;16.70;;;7.00;73.10;;;;;;5008389;28;20482;-48
2021/04/30 05:19:35;;;;;;;19.87;14.57;;;7.00;72.90;;;;;;5009250;28;20504;-48
2021/04/30 05:22:06;;;;;;;19.60;15.47;;;7.00;72.90;;;;;;5010042;28;20547;-47
2021/04/30 05:24:34;;;;;;;17.80;14.10;;;7.10;72.90;;;;;;5007156;28;20460;-48
2021/04/30 05:27:04;;;;;;;22.77;16.20;;;7.10;72.80;;;;;;5010332;28;21552;-48
2021/04/30 05:29:31;;;;;;;21.20;16.33;;;7.20;72.30;;;;;;5011258;28;20465;-48
2021/04/30 05:31:58;;;;;;;23.13;17.10;;;7.30;71.80;;;;;;5003931;28;20472;-48
2021/04/30 05:34:24;;;;;;;24.60;18.10;;;7.30;72.10;;;;;;4998846;28;21128;-48
2021/04/30 05:36:52;;;;;;;18.97;15.70;;;7.30;72.30;;;;;;5003801;28;20462;-48
2021/04/30 05:39:19;;;;;;;19.20;15.13;;;7.30;72.40;;;;;;5003789;28;20570;-48
2021/04/30 05:41:45;;;;;;;18.67;15.40;;;7.40;72.50;;;;;;5003334;28;20478;-48
2021/04/30 05:44:12;;;;;;;19.90;16.07;;;7.40;72.40;;;;;;5015896;28;20526;-48
2021/04/30 05:46:38;;;;;;;19.50;15.07;;;7.50;72.30;;;;;;5004413;28;20456;-48
2021/04/30 05:49:05;;;;;;;20.30;15.77;;;7.50;72.20;;;;;;5007976;28;20463;-47
2021/04/30 05:51:31;;;;;;;23.77;17.73;;;7.60;72.10;;;;;;5007026;28;20457;-48
2021/04/30 05:53:57;;;;;;;20.53;15.43;;;7.60;72.10;;;;;;5007814;28;20565;-48
2021/04/30 05:56:30;;;;;;;17.87;15.27;;;7.60;72.00;;;;;;5003846;28;20475;-48
2021/04/30 05:58:56;;;;;;;19.30;15.20;;;7.70;71.90;;;;;;5005807;28;20575;-48
2021/04/30 06:01:22;;;;;;;22.10;16.63;;;7.80;71.40;;;;;;5023154;28;20973;-48
2021/04/30 06:03:49;;;;;;;24.20;17.80;;;7.90;70.90;;;;;;5007194;28;20957;-48
2021/04/30 06:06:16;;;;;;;19.00;16.40;;;8.00;70.80;;;;;;5009144;28;20488;-48
2021/04/30 06:08:42;;;;;;;26.00;18.60;;;8.00;71.10;;;;;;5006159;28;20746;-48
2021/04/30 06:11:09;;;;;;;23.50;16.03;;;8.10;70.90;;;;;;5007984;28;20464;-48
2021/04/30 06:13:35;;;;;;;20.87;16.10;;;8.10;70.90;;;;;;5006965;28;20703;-47
2021/04/30 06:16:02;;;;;;;29.73;17.60;;;8.20;70.40;;;;;;5006917;28;20488;-48
2021/04/30 06:18:29;;;;;;;23.27;17.03;;;8.30;70.50;;;;;;5007844;28;20487;-48
2021/04/30 06:20:56;;;;;;;28.80;19.80;;;8.50;70.20;;;;;;5006960;28;20455;-48
2021/04/30 06:23:22;;;;;;;27.40;18.67;;;8.60;70.10;;;;;;5006082;28;20610;-48
2021/04/30 06:25:49;;;;;;;27.70;18.03;;;8.80;69.80;;;;;;5008771;28;20452;-48
2021/04/30 06:28:15;;;;;;;23.60;17.43;;;9.00;68.60;;;;;;5009107;28;20472;-48
2021/04/30 06:30:41;;;;;;;29.47;18.90;;;9.20;68.00;;;;;;5006766;28;20911;-48
2021/04/30 06:33:09;;;;;;;20.80;16.87;;;9.30;67.50;;;;;;5009957;28;20893;-48
2021/04/30 06:35:35;;;;;;;22.67;17.27;;;9.40;67.40;;;;;;5007301;28;20449;-48
2021/04/30 06:38:03;;;;;;;22.70;16.73;;;9.50;65.90;;;;;;5004301;28;20468;-48
2021/04/30 06:40:31;;;;;;;23.63;17.60;;;9.50;65.90;;;;;;5008650;28;20460;-48
2021/04/30 06:42:58;;;;;;;24.10;18.37;;;9.60;65.70;;;;;;5006123;28;20457;-48
2021/04/30 06:45:25;;;;;;;27.40;18.40;;;9.60;65.20;;;;;;5007396;28;20443;-48
2021/04/30 06:47:51;;;;;;;31.53;17.47;;;9.60;64.90;;;;;;5005602;28;20714;-48
2021/04/30 06:50:18;;;;;;;21.17;15.80;;;9.60;65.30;;;;;;5011263;28;20452;-48
2021/04/30 06:52:44;;;;;;;26.43;17.37;;;9.70;65.30;;;;;;5007870;28;20453;-48
2021/04/30 06:55:11;;;;;;;25.90;18.17;;;9.70;65.20;;;;;;5007509;28;20453;-48
2021/04/30 06:57:41;;;;;;;23.63;18.27;;;9.60;64.20;;;;;;5008710;28;20511;-48
2021/04/30 07:00:08;;;;;;;23.60;17.80;;;9.70;64.80;;;;;;5007140;28;20500;-48
2021/04/30 07:02:35;;;;;;;28.00;16.97;;;9.70;64.10;;;;;;5008959;28;20444;-47
2021/04/30 07:05:02;;;;;;;22.80;16.87;;;9.60;63.70;;;;;;4999668;28;20686;-48
2021/04/30 07:07:29;;;;;;;26.30;17.50;;;9.70;63.90;;;;;;4981279;28;21077;-48
2021/04/30 07:09:55;;;;;;;19.67;16.10;;;9.70;64.70;;;;;;5001971;28;20468;-48
2021/04/30 07:12:24;;;;;;;21.20;16.80;;;9.70;63.60;;;;;;5001293;28;20464;-49
2021/04/30 07:14:53;;;;;;;25.20;17.20;;;9.70;63.70;;;;;;5002770;28;20844;-48
2021/04/30 07:17:20;;;;;;;22.77;17.23;;;9.80;63.80;;;;;;5003400;28;20464;-48
2021/04/30 07:19:46;;;;;;;24.13;17.73;;;9.80;64.00;;;;;;5009512;28;20484;-48
2021/04/30 07:22:14;;;;;;;22.90;17.53;;;9.90;64.20;;;;;;5009139;28;20458;-48
2021/04/30 07:24:41;;;;;;;26.40;17.70;;;10.00;64.10;;;;;;5006039;28;20462;-48
2021/04/30 07:27:09;;;;;;;23.40;18.53;;;10.00;63.80;;;;;;5008265;28;20460;-48
2021/04/30 07:29:36;;;;;;;21.73;16.57;;;10.10;63.70;;;;;;5004689;28;20476;-48
2021/04/30 07:32:04;;;;;;;23.23;16.40;;;10.20;63.90;;;;;;5005001;28;20547;-48
2021/04/30 07:34:36;;;;;;;20.93;15.40;;;10.20;63.00;;;;;;5004390;28;21095;-48
2021/04/30 07:37:05;;;;;;;24.23;17.30;;;10.30;62.00;;;;;;5005741;28;20837;-48
2021/04/30 07:39:34;;;;;;;28.10;17.50;;;10.40;61.70;;;;;;5006058;28;20491;-48
2021/04/30 07:42:02;;;;;;;26.03;17.37;;;10.40;61.40;;;;;;5000424;28;20900;-48
2021/04/30 07:44:29;;;;;;;20.97;16.07;;;10.40;60.90;;;;;;5008955;28;20449;-48
2021/04/30 07:46:55;;;;;;;19.70;15.00;;;10.50;60.80;;;;;;5007102;28;20448;-48
2021/04/30 07:49:22;;;;;;;21.77;15.67;;;10.50;60.70;;;;;;5009355;28;20510;-48
2021/04/30 07:51:48;;;;;;;20.50;16.40;;;10.50;60.70;;;;;;5006265;28;20515;-48
2021/04/30 07:54:17;;;;;;;20.10;15.67;;;10.50;61.10;;;;;;5007647;28;20939;-48
2021/04/30 07:56:45;;;;;;;21.60;16.93;;;10.60;60.50;;;;;;5008855;28;20452;-47
2021/04/30 07:59:12;;;;;;;23.17;16.30;;;10.60;60.40;;;;;;5008299;28;20476;-48
2021/04/30 08:01:38;;;;;;;26.77;17.37;;;10.60;60.70;;;;;;5007948;28;20464;-48
2021/04/30 08:04:05;;;;;;;25.30;16.10;;;10.70;60.90;;;;;;5008013;28;20934;-48
2021/04/30 08:06:32;;;;;;;24.23;17.07;;;10.80;59.90;;;;;;5008150;28;20464;-48
2021/04/30 08:08:59;;;;;;;41.73;21.40;;;10.80;59.80;;;;;;5009427;28;20468;-48
2021/04/30 08:11:25;;;;;;;30.53;19.47;;;10.80;60.10;;;;;;5008325;28;20444;-48
2021/04/30 08:13:52;;;;;;;33.03;18.00;;;10.90;60.20;;;;;;5023438;28;20474;-48
2021/04/30 08:16:18;;;;;;;22.60;16.60;;;10.90;60.30;;;;;;5006984;28;20472;-48
2021/04/30 08:18:44;;;;;;;24.97;16.50;;;10.90;59.90;;;;;;5010199;28;20484;-48
2021/04/30 08:21:11;;;;;;;22.13;16.30;;;10.90;59.80;;;;;;5025788;28;20945;-48
2021/04/30 08:23:37;;;;;;;30.20;18.20;;;11.00;59.60;;;;;;5011536;28;20463;-48
2021/04/30 08:26:04;;;;;;;20.60;15.90;;;11.00;59.80;;;;;;5009809;28;20462;-48
2021/04/30 08:28:30;;;;;;;23.83;16.37;;;11.00;60.40;;;;;;5013246;28;20456;-48
2021/04/30 08:30:56;;;;;;;21.37;16.00;;;11.00;60.60;;;;;;5011914;28;20540;-48
2021/04/30 08:33:26;;;;;;;20.50;15.70;;;11.00;59.90;;;;;;5013009;28;20495;-48
2021/04/30 08:35:53;;;;;;;21.70;15.63;;;11.00;60.20;;;;;;5008603;28;20963;-48
2021/04/30 08:38:20;;;;;;;21.03;14.87;;;11.10;59.40;;;;;;5012917;28;20487;-48
2021/04/30 08:40:49;;;;;;;19.17;14.53;;;11.10;59.30;;;;;;5012335;28;20463;-48
2021/04/30 08:43:19;;;;;;;20.20;15.07;;;11.10;58.90;;;;;;5011306;28;20456;-48
2021/04/30 08:45:46;;;;;;;18.13;15.40;;;11.10;59.20;;;;;;5010912;28;22711;-48
2021/04/30 08:48:14;;;;;;;21.30;15.27;;;11.10;59.70;;;;;;5007961;28;20448;-49
2021/04/30 08:50:44;;;;;;;20.83;15.60;;;11.10;59.90;;;;;;5008273;28;20464;-49
2021/04/30 08:53:10;;;;;;;19.37;14.10;;;11.10;59.50;;;;;;5007553;28;20535;-48
2021/04/30 08:55:37;;;;;;;20.37;16.50;;;11.20;59.50;;;;;;5013597;28;20444;-48
2021/04/30 08:58:07;;;;;;;20.60;15.57;;;11.20;59.50;;;;;;5012887;28;20440;-48
2021/04/30 09:00:33;;;;;;;20.33;15.53;;;11.30;59.50;;;;;;5008949;28;20451;-49
2021/04/30 09:03:00;;;;;;;18.50;16.00;;;11.40;59.90;;;;;;5011845;28;20892;-48
2021/04/30 09:05:31;;;;;;;22.20;16.80;;;11.50;59.80;;;;;;5010447;28;20456;-48
2021/04/30 09:07:59;;;;;;;17.70;15.00;;;11.60;59.30;;;;;;5012159;28;20448;-48
2021/04/30 09:10:28;;;;;;;21.97;17.03;;;11.60;58.90;;;;;;5009944;28;20448;-48
2021/04/30 09:13:12;;;;;;;22.17;16.37;;;11.60;58.70;;;;;;5010210;28;20475;-48
2021/04/30 09:15:41;;;;;;;20.50;15.73;;;11.60;59.30;;;;;;5009996;28;20480;-48
2021/04/30 09:18:25;;;;;;;19.70;14.97;;;11.50;59.20;;;;;;5025710;28;20896;-48
2021/04/30 09:20:54;;;;;;;21.07;16.47;;;11.50;59.70;;;;;;5009086;28;20499;-47
2021/04/30 09:23:43;;;;;;;25.30;16.47;;;11.40;59.90;;;;;;5011078;28;20448;-48
2021/04/30 09:26:35;;;;;;;24.53;17.30;;;11.40;60.20;;;;;;5010489;28;20499;-48
2021/04/30 09:29:09;;;;;;;19.93;16.13;;;11.40;59.50;;;;;;5006470;28;20468;-47
2021/04/30 09:31:40;;;;;;;23.00;16.17;;;11.30;59.80;;;;;;5008577;28;20466;-47
2021/04/30 09:34:26;;;;;;;23.17;17.50;;;11.20;60.30;;;;;;5006273;28;20852;-47
2021/04/30 09:37:13;;;;;;;23.57;15.57;;;11.20;59.90;;;;;;5004563;28;20989;-47
2021/04/30 09:39:53;;;;;;;23.90;17.30;;;11.20;60.40;;;;;;5008235;28;21109;-48
2021/04/30 09:42:22;;;;;;;26.37;16.90;;;11.20;60.40;;;;;;5022844;28;20471;-47
2021/04/30 09:44:51;;;;;;;20.47;16.43;;;11.10;60.70;;;;;;5008756;28;20467;-48
2021/04/30 09:47:21;;;;;;;24.57;17.20;;;11.10;61.60;;;;;;5010579;28;20887;-46
2021/04/30 09:50:04;;;;;;;21.77;16.37;;;11.10;61.60;;;;;;5006104;28;20788;-48
2021/04/30 09:52:32;;;;;;;23.60;16.67;;;11.00;62.10;;;;;;5007286;28;20472;-48
2021/04/30 09:55:03;;;;;;;22.73;17.27;;;11.00;61.90;;;;;;5008405;28;20471;-48
2021/04/30 09:57:31;;;;;;;23.30;17.93;;;11.00;61.30;;;;;;5012059;28;20555;-48
2021/04/30 10:00:16;;;;;;;20.57;16.37;;;11.10;61.70;;;;;;5005832;28;20590;-48
2021/04/30 10:02:47;;;;;;;24.50;16.70;;;11.10;61.50;;;;;;5004957;28;20470;-48
2021/04/30 10:05:17;;;;;;;22.97;17.07;;;11.20;60.70;;;;;;5001601;28;20468;-48
2021/04/30 10:08:14;;;;;;;21.97;16.10;;;11.30;60.60;;;;;;5004251;28;20489;-48
2021/04/30 10:10:40;;;;;;;22.57;15.97;;;11.50;59.90;;;;;;5007721;28;20839;-47
2021/04/30 10:13:07;;;;;;;20.43;15.43;;;11.50;60.00;;;;;;5004679;28;20487;-48
2021/04/30 10:15:33;;;;;;;22.97;16.70;;;11.70;59.20;;;;;;5006700;28;20617;-47
2021/04/30 10:18:00;;;;;;;22.10;16.13;;;11.70;59.60;;;;;;5019411;28;20471;-47
2021/04/30 10:20:26;;;;;;;27.00;16.50;;;11.80;59.60;;;;;;5006907;28;20500;-48
2021/04/30 10:22:55;;;;;;;20.23;14.97;;;11.90;59.50;;;;;;5004222;28;20543;-48
2021/04/30 10:25:23;;;;;;;21.63;14.97;;;12.00;59.20;;;;;;5009061;28;20478;-47
2021/04/30 10:27:53;;;;;;;22.63;16.30;;;12.10;58.10;;;;;;5005409;28;20955;-48
2021/04/30 10:30:43;;;;;;;22.10;17.47;;;12.10;57.30;;;;;;5007165;28;20527;-48
2021/04/30 10:33:34;;;;;;;23.73;17.30;;;12.10;57.60;;;;;;5023238;28;20460;-47
2021/04/30 10:36:15;;;;;;;25.53;16.33;;;12.10;57.60;;;;;;5007493;28;20499;-48
2021/04/30 10:38:55;;;;;;;32.60;17.80;;;12.10;57.50;;;;;;5009323;28;20490;-46
2021/04/30 10:41:29;;;;;;;23.60;17.60;;;12.10;58.10;;;;;;5002380;28;20459;-48
2021/04/30 10:44:18;;;;;;;22.30;16.93;;;12.10;58.10;;;;;;5006577;28;20452;-48
2021/04/30 10:46:46;;;;;;;22.60;17.40;;;12.30;58.20;;;;;;5007977;28;20484;-48
2021/04/30 10:49:17;;;;;;;22.57;17.40;;;12.30;57.20;;;;;;5010032;28;20460;-48
2021/04/30 10:52:07;;;;;;;24.40;15.73;;;12.40;57.10;;;;;;5022959;28;20452;-48
2021/04/30 10:54:38;;;;;;;29.93;17.53;;;12.60;56.70;;;;;;5005065;28;21011;-48
2021/04/30 10:57:15;;;;;;;22.57;16.50;;;12.70;56.40;;;;;;5011040;28;20452;-48
2021/04/30 10:59:47;;;;;;;19.83;15.67;;;12.80;56.10;;;;;;5008059;28;20523;-48
2021/04/30 11:02:26;;;;;;;20.10;15.63;;;12.90;55.80;;;;;;5007543;28;20564;-48
2021/04/30 11:05:13;;;;;;;20.57;15.57;;;13.00;55.40;;;;;;5023504;28;20464;-48
2021/04/30 11:07:53;;;;;;;22.90;15.80;;;13.20;55.20;;;;;;5006807;28;20550;-49
2021/04/30 11:10:31;;;;;;;18.53;14.17;;;13.40;54.60;;;;;;5009018;28;20462;-48
2021/04/30 11:13:04;;;;;;;19.97;14.13;;;13.60;54.10;;;;;;5008211;28;20502;-48
2021/04/30 11:15:33;;;;;;;17.60;14.03;;;13.70;53.90;;;;;;5006654;28;20611;-48
2021/04/30 11:18:02;;;;;;;19.50;15.20;;;13.90;53.40;;;;;;5005100;28;20522;-48
2021/04/30 11:20:31;;;;;;;19.37;13.80;;;14.00;53.10;;;;;;5006936;28;20538;-48
2021/04/30 11:23:18;;;;;;;15.77;13.00;;;14.10;52.50;;;;;;5006386;28;20459;-47
2021/04/30 11:26:00;;;;;;;17.60;11.63;;;14.20;52.20;;;;;;5009167;28;20462;-47
2021/04/30 11:28:29;;;;;;;17.77;13.90;;;14.20;52.00;;;;;;5008548;28;20463;-47
2021/04/30 11:31:01;;;;;;;18.00;12.70;;;14.10;52.30;;;;;;5024071;28;20456;-48
2021/04/30 11:33:28;;;;;;;15.83;12.73;;;14.00;52.40;;;;;;5008535;28;20547;-48
2021/04/30 11:35:56;;;;;;;14.10;10.90;;;14.00;52.70;;;;;;5010198;28;20958;-48
2021/04/30 11:38:36;;;;;;;16.70;12.57;;;14.00;53.10;;;;;;5011349;28;20478;-48
2021/04/30 11:41:03;;;;;;;23.40;14.90;;;14.00;53.40;;;;;;5008194;28;20454;-48
2021/04/30 11:43:32;;;;;;;21.30;16.47;;;14.00;53.10;;;;;;5007838;28;20531;-47
2021/04/30 11:45:59;;;;;;;20.73;16.17;;;14.00;54.00;;;;;;5005514;28;20456;-48
2021/04/30 11:48:27;;;;;;;21.10;16.40;;;14.00;54.10;;;;;;5008838;28;20440;-48
2021/04/30 11:50:59;;;;;;;22.93;17.00;;;14.00;53.80;;;;;;5010059;28;20460;-48
2021/04/30 11:53:26;;;;;;;21.83;16.17;;;14.00;54.40;;;;;;5008735;28;20459;-48
2021/04/30 11:55:53;;;;;;;23.10;17.30;;;14.00;53.70;;;;;;5005449;28;20555;-48
2021/04/30 11:58:20;;;;;;;18.90;15.30;;;14.00;53.50;;;;;;5008565;28;20448;-48
2021/04/30 12:00:51;;;;;;;18.33;15.13;;;14.00;53.60;;;;;;5009477;28;21103;-47
2021/04/30 12:03:18;;;;;;;22.97;15.70;;;14.00;53.30;;;;;;5006818;28;20551;-48
2021/04/30 12:05:44;;;;;;;16.80;14.17;;;14.00;53.20;;;;;;5007807;28;20467;-48
2021/04/30 12:08:11;;;;;;;18.80;13.70;;;14.00;53.40;;;;;;5008922;28;20449;-48
2021/04/30 12:10:38;;;;;;;15.07;13.43;;;14.00;53.30;;;;;;5022085;28;20465;-48
2021/04/30 12:13:07;;;;;;;17.93;12.90;;;13.90;53.80;;;;;;5008290;28;20456;-48
2021/04/30 12:15:38;;;;;;;20.17;14.00;;;14.00;54.10;;;;;;5009058;28;20484;-47
2021/04/30 12:18:05;;;;;;;16.00;13.23;;;14.00;54.10;;;;;;5009116;28;20448;-48
2021/04/30 12:20:34;;;;;;;17.53;13.03;;;14.00;53.80;;;;;;5007338;28;20492;-48
2021/04/30 12:23:03;;;;;;;15.77;12.33;;;14.00;53.30;;;;;;5008604;28;20464;-47
2021/04/30 12:25:42;;;;;;;14.40;12.60;;;14.00;52.90;;;;;;5009264;28;20467;-47
2021/04/30 12:28:23;;;;;;;18.47;13.90;;;14.00;53.60;;;;;;5007291;28;20452;-48
2021/04/30 12:30:57;;;;;;;14.23;12.30;;;14.10;53.80;;;;;;5009275;28;20522;-48
2021/04/30 12:33:24;;;;;;;18.57;12.97;;;14.20;51.40;;;;;;5009281;28;20491;-47
2021/04/30 12:35:54;;;;;;;17.13;13.17;;;14.10;52.10;;;;;;5006840;28;20543;-48
2021/04/30 12:38:21;;;;;;;15.90;11.77;;;14.10;53.60;;;;;;5008112;28;20462;-48
2021/04/30 12:40:47;;;;;;;17.60;11.60;;;14.10;53.00;;;;;;5006988;28;20803;-48
2021/04/30 12:43:25;;;;;;;16.03;11.40;;;14.20;51.90;;;;;;5005609;28;20504;-47